Time;durP1;ratioP1;P1;durP2;ratioP2;P2;SDS_P1;SDS_P2;PMS_P1;PMS_P2;Temp;Humidity;BMP_temperature;BMP_pressure;BME280_temperature;BME280_humidity;BME280_pressure;Samples;Min_cycle;Max_cycle;Signal;HPM_P1;HPM_P2
2022/03/06 00:01:48;;;;;;;8.00;5.85;;;;;;;-0.03;100.00;101169.87;1668088;86;21546;-65
2022/03/06 00:04:15;;;;;;;10.75;5.47;;;;;;;0.05;100.00;101173.75;1648688;86;21113;-65
2022/03/06 00:06:45;;;;;;;7.70;5.62;;;;;;;0.07;100.00;101175.87;1668090;86;21034;-65
2022/03/06 00:09:12;;;;;;;7.90;5.30;;;;;;;0.07;100.00;101182.63;1649345;86;21106;-66
2022/03/06 00:11:41;;;;;;;9.38;5.87;;;;;;;0.09;100.00;101181.80;1668078;84;21039;-65
2022/03/06 00:14:08;;;;;;;8.15;5.72;;;;;;;0.08;100.00;101182.66;1668182;86;21090;-65
2022/03/06 00:16:35;;;;;;;9.20;6.10;;;;;;;0.12;100.00;101183.11;1668020;86;21046;-65
2022/03/06 00:19:03;;;;;;;10.88;5.90;;;;;;;0.14;100.00;101190.70;1668423;86;21573;-64
2022/03/06 00:21:31;;;;;;;8.70;5.67;;;;;;;0.09;100.00;101193.63;1648849;86;21038;-65
2022/03/06 00:23:57;;;;;;;10.63;5.97;;;;;;;0.09;100.00;101194.45;1667892;86;21593;-63
2022/03/06 00:26:25;;;;;;;9.30;5.87;;;;;;;0.11;100.00;101193.22;1668064;85;21057;-65
2022/03/06 00:28:52;;;;;;;9.10;5.90;;;;;;;0.05;100.00;101191.47;1668012;86;21073;-64
2022/03/06 00:31:19;;;;;;;8.90;5.78;;;;;;;0.09;100.00;101195.72;1671417;84;21109;-65
2022/03/06 00:33:47;;;;;;;10.60;5.72;;;;;;;0.14;100.00;101196.64;1696093;84;21595;-64
2022/03/06 00:36:13;;;;;;;8.70;5.55;;;;;;;0.15;100.00;101199.58;1696197;84;21056;-64
2022/03/06 00:38:41;;;;;;;10.15;6.30;;;;;;;0.15;100.00;101202.11;1696234;84;21152;-65
2022/03/06 00:41:08;;;;;;;8.65;5.50;;;;;;;0.13;100.00;101208.84;1676595;83;21489;-64
2022/03/06 00:43:37;;;;;;;8.90;5.50;;;;;;;0.15;100.00;101209.71;1696514;83;21045;-65
2022/03/06 00:46:04;;;;;;;6.80;4.72;;;;;;;0.14;100.00;101200.44;1696162;84;21084;-65
2022/03/06 00:48:31;;;;;;;8.30;5.10;;;;;;;0.13;100.00;101202.94;1696104;84;21103;-65
2022/03/06 00:50:59;;;;;;;9.48;5.05;;;;;;;0.12;100.00;101205.90;1696249;84;21136;-64
2022/03/06 00:53:26;;;;;;;7.65;4.80;;;;;;;0.10;100.00;101207.56;1676479;84;21112;-65
2022/03/06 00:55:53;;;;;;;6.50;4.87;;;;;;;0.13;100.00;101208.84;1676298;84;21080;-65
2022/03/06 00:58:20;;;;;;;6.75;4.80;;;;;;;0.14;100.00;101210.95;1696280;84;21107;-64
2022/03/06 01:00:49;;;;;;;7.17;4.58;;;;;;;0.13;100.00;101211.38;1676365;84;21009;-64
2022/03/06 01:03:19;;;;;;;7.33;4.62;;;;;;;0.17;100.00;101207.20;1676838;84;21024;-65
2022/03/06 01:05:47;;;;;;;6.37;4.50;;;;;;;0.21;100.00;101214.42;1696560;83;21029;-65
2022/03/06 01:08:15;;;;;;;8.50;4.40;;;;;;;0.19;100.00;101217.77;1696437;84;21553;-65
2022/03/06 01:10:45;;;;;;;7.17;4.85;;;;;;;0.13;100.00;101216.44;1696365;84;21244;-67
2022/03/06 01:13:15;;;;;;;7.47;4.58;;;;;;;0.11;100.00;101221.91;1696349;84;21048;-65
2022/03/06 01:15:42;;;;;;;7.40;4.97;;;;;;;0.09;100.00;101226.53;1696447;84;21103;-65
2022/03/06 01:18:09;;;;;;;10.72;6.45;;;;;;;0.03;100.00;101228.57;1696339;84;21037;-65
2022/03/06 01:20:39;;;;;;;11.63;6.55;;;;;;;-0.05;100.00;101228.48;1696375;84;21057;-64
2022/03/06 01:23:08;;;;;;;13.72;7.17;;;;;;;-0.03;100.00;101234.41;1696449;84;21025;-66
2022/03/06 01:25:35;;;;;;;12.20;7.65;;;;;;;-0.05;100.00;101236.07;1696347;84;21170;-64
2022/03/06 01:28:05;;;;;;;16.12;8.05;;;;;;;-0.09;100.00;101232.23;1696081;84;21623;-65
2022/03/06 01:30:32;;;;;;;15.28;8.10;;;;;;;-0.06;100.00;101231.86;1696395;84;21571;-64
2022/03/06 01:33:00;;;;;;;15.63;8.35;;;;;;;-0.11;100.00;101230.10;1696372;84;20997;-65
2022/03/06 01:35:27;;;;;;;13.20;8.38;;;;;;;-0.14;100.00;101232.58;1676400;84;21501;-64
2022/03/06 01:37:54;;;;;;;13.93;8.83;;;;;;;-0.16;100.00;101233.86;1696187;84;21029;-65
2022/03/06 01:40:21;;;;;;;15.13;8.33;;;;;;;-0.15;100.00;101234.70;1696335;84;21091;-68
2022/03/06 01:42:50;;;;;;;14.15;8.60;;;;;;;-0.25;100.00;101232.04;1696320;83;21025;-64
2022/03/06 01:45:21;;;;;;;14.28;8.78;;;;;;;-0.22;100.00;101230.83;1696575;84;21052;-64
2022/03/06 01:47:52;;;;;;;13.85;7.95;;;;;;;-0.22;100.00;101238.42;1696480;84;21025;-64
2022/03/06 01:50:23;;;;;;;19.95;9.70;;;;;;;-0.24;100.00;101237.55;1696287;83;21084;-63
2022/03/06 01:52:52;;;;;;;16.45;8.68;;;;;;;-0.24;100.00;101234.18;1696571;84;21048;-64
2022/03/06 01:55:23;;;;;;;15.03;8.33;;;;;;;-0.25;100.00;101238.37;1696258;84;21008;-64
2022/03/06 01:57:55;;;;;;;20.68;10.65;;;;;;;-0.28;100.00;101238.77;1677134;84;20981;-65
2022/03/06 02:00:26;;;;;;;24.30;11.48;;;;;;;-0.37;100.00;101244.55;1695859;84;21373;-64
2022/03/06 02:02:54;;;;;;;28.05;12.40;;;;;;;-0.45;100.00;101243.59;1676469;84;21053;-66
2022/03/06 02:05:21;;;;;;;26.25;12.40;;;;;;;-0.49;100.00;101246.49;1696184;85;22589;-64
2022/03/06 02:07:49;;;;;;;29.02;12.47;;;;;;;-0.54;100.00;101248.13;1696547;84;20973;-64
2022/03/06 02:10:18;;;;;;;31.97;12.23;;;;;;;-0.55;100.00;101245.57;1676215;84;21029;-63
2022/03/06 02:12:46;;;;;;;20.82;11.05;;;;;;;-0.51;100.00;101248.16;1696007;84;21517;-65
2022/03/06 02:15:17;;;;;;;22.00;10.68;;;;;;;-0.54;100.00;101247.28;1696684;84;22240;-66
2022/03/06 02:17:45;;;;;;;22.00;10.45;;;;;;;-0.55;100.00;101256.53;1696285;84;21048;-65
2022/03/06 02:20:21;;;;;;;18.70;10.35;;;;;;;-0.53;100.00;101263.72;1696630;84;20993;-64
2022/03/06 02:22:52;;;;;;;17.87;9.70;;;;;;;-0.55;100.00;101255.69;1696312;84;21032;-64
2022/03/06 02:25:25;;;;;;;18.23;9.90;;;;;;;-0.53;100.00;101254.03;1696663;84;21033;-63
2022/03/06 02:27:54;;;;;;;15.93;9.75;;;;;;;-0.57;100.00;101258.61;1696295;84;21033;-66
2022/03/06 02:30:25;;;;;;;18.07;10.55;;;;;;;-0.54;100.00;101258.25;1696706;84;21092;-66
2022/03/06 02:32:54;;;;;;;17.92;9.40;;;;;;;-0.52;100.00;101256.58;1674068;84;21049;-64
2022/03/06 02:35:22;;;;;;;21.85;10.30;;;;;;;-0.48;100.00;101260.02;1666860;86;21184;-66
2022/03/06 02:37:49;;;;;;;20.57;10.35;;;;;;;-0.53;100.00;101264.98;1647557;86;21057;-63
2022/03/06 02:40:19;;;;;;;17.40;10.15;;;;;;;-0.47;100.00;101268.02;1674027;86;21060;-65
2022/03/06 02:42:48;;;;;;;19.00;9.70;;;;;;;-0.48;100.00;101267.59;1674604;84;21159;-64
2022/03/06 02:45:25;;;;;;;17.98;9.90;;;;;;;-0.48;100.00;101272.23;1657587;86;21078;-64
2022/03/06 02:47:55;;;;;;;17.32;9.43;;;;;;;-0.47;100.00;101274.34;1645211;87;21142;-64
2022/03/06 02:50:27;;;;;;;16.60;9.18;;;;;;;-0.48;100.00;101270.13;1662325;86;21088;-65
2022/03/06 02:52:55;;;;;;;16.07;9.30;;;;;;;-0.51;100.00;101277.23;1657983;86;21579;-64
2022/03/06 02:55:23;;;;;;;14.90;8.75;;;;;;;-0.46;100.00;101281.12;1657918;85;21126;-63
2022/03/06 02:57:51;;;;;;;16.32;8.58;;;;;;;-0.45;100.00;101282.80;1657747;86;21047;-63
2022/03/06 03:00:20;;;;;;;13.20;8.25;;;;;;;-0.45;100.00;101283.64;1656261;86;21069;-63
2022/03/06 03:02:48;;;;;;;13.32;8.35;;;;;;;-0.43;100.00;101288.73;1674890;86;21080;-64
2022/03/06 03:05:17;;;;;;;14.35;8.38;;;;;;;-0.40;100.00;101292.58;1657755;86;21059;-64
2022/03/06 03:07:48;;;;;;;14.43;8.70;;;;;;;-0.41;100.00;101290.86;1657718;86;21077;-65
2022/03/06 03:10:19;;;;;;;12.65;7.92;;;;;;;-0.41;100.00;101290.47;1657826;86;21142;-64
2022/03/06 03:12:48;;;;;;;13.85;7.72;;;;;;;-0.43;100.00;101298.45;1657854;86;21136;-64
2022/03/06 03:15:16;;;;;;;11.65;8.18;;;;;;;-0.43;100.00;101295.92;1675025;86;21072;-64
2022/03/06 03:17:43;;;;;;;11.90;8.00;;;;;;;-0.43;100.00;101301.37;1657653;85;21099;-64
2022/03/06 03:20:13;;;;;;;12.50;7.78;;;;;;;-0.44;100.00;101309.81;1657786;86;21112;-65
2022/03/06 03:22:40;;;;;;;14.10;8.18;;;;;;;-0.44;100.00;101314.87;1674637;86;21091;-64
2022/03/06 03:25:09;;;;;;;14.23;8.30;;;;;;;-0.46;100.00;101316.10;1671971;86;21084;-64
2022/03/06 03:27:38;;;;;;;14.00;8.08;;;;;;;-0.47;100.00;101309.75;1672123;86;21064;-64
2022/03/06 03:30:08;;;;;;;14.20;8.38;;;;;;;-0.52;100.00;101319.81;1672129;86;21091;-64
2022/03/06 03:32:37;;;;;;;14.73;9.08;;;;;;;-0.48;100.00;101314.39;1672209;86;21055;-65
2022/03/06 03:35:05;;;;;;;19.35;10.32;;;;;;;-0.51;100.00;101318.13;1645728;86;21091;-63
2022/03/06 03:37:32;;;;;;;16.60;10.13;;;;;;;-0.51;100.00;101321.50;1672390;86;21556;-64
2022/03/06 03:39:59;;;;;;;17.07;9.90;;;;;;;-0.50;100.00;101319.84;1671807;85;21236;-64
2022/03/06 03:42:27;;;;;;;16.85;10.55;;;;;;;-0.49;100.00;101321.52;1671839;84;21649;-65
2022/03/06 03:44:55;;;;;;;15.90;9.85;;;;;;;-0.51;100.00;101322.76;1672163;86;21572;-63
2022/03/06 03:47:22;;;;;;;19.25;9.63;;;;;;;-0.54;100.00;101324.42;1672034;86;21064;-65
2022/03/06 03:49:49;;;;;;;14.90;8.75;;;;;;;-0.51;100.00;101327.81;1645134;86;21075;-64
2022/03/06 03:52:15;;;;;;;18.95;8.83;;;;;;;-0.48;100.00;101331.67;1671852;86;21560;-64
2022/03/06 03:54:42;;;;;;;18.77;10.48;;;;;;;-0.49;100.00;101327.84;1671839;86;21592;-63
2022/03/06 03:57:08;;;;;;;17.75;9.80;;;;;;;-0.50;100.00;101335.02;1672427;86;21045;-63
2022/03/06 03:59:36;;;;;;;16.82;10.05;;;;;;;-0.53;100.00;101329.47;1672356;86;21525;-63
2022/03/06 04:02:04;;;;;;;19.12;10.70;;;;;;;-0.54;100.00;101334.53;1672109;86;21064;-64
2022/03/06 04:04:31;;;;;;;19.40;10.65;;;;;;;-0.53;100.00;101338.33;1671900;86;21597;-64
2022/03/06 04:06:57;;;;;;;19.40;10.95;;;;;;;-0.55;100.00;101336.61;1672093;86;21123;-63
2022/03/06 04:09:24;;;;;;;21.73;11.73;;;;;;;-0.56;100.00;101340.83;1671935;86;21025;-63
2022/03/06 04:11:52;;;;;;;25.35;12.68;;;;;;;-0.59;100.00;101350.88;1671975;86;21088;-64
2022/03/06 04:14:18;;;;;;;23.42;12.70;;;;;;;-0.55;100.00;101346.72;1671839;86;21077;-64
2022/03/06 04:16:46;;;;;;;20.80;11.57;;;;;;;-0.61;100.00;101342.03;1671896;86;21065;-63
2022/03/06 04:19:12;;;;;;;18.98;10.88;;;;;;;-0.62;100.00;101344.11;1672340;85;21001;-63
2022/03/06 04:21:39;;;;;;;19.87;10.20;;;;;;;-0.61;100.00;101343.30;1672071;86;21111;-65
2022/03/06 04:24:07;;;;;;;17.45;9.98;;;;;;;-0.63;100.00;101352.53;1671986;86;21607;-63
2022/03/06 04:26:35;;;;;;;18.02;10.40;;;;;;;-0.54;100.00;101349.28;1644936;86;21041;-63
2022/03/06 04:29:04;;;;;;;18.55;11.03;;;;;;;-0.50;100.00;101357.77;1671702;86;21091;-63
2022/03/06 04:31:32;;;;;;;17.40;10.20;;;;;;;-0.46;100.00;101354.47;1672098;84;21024;-63
2022/03/06 04:33:59;;;;;;;17.32;10.38;;;;;;;-0.45;100.00;101358.67;1671632;86;21073;-63
2022/03/06 04:36:26;;;;;;;19.37;11.35;;;;;;;-0.46;100.00;101364.58;1671802;86;21092;-63
2022/03/06 04:38:55;;;;;;;19.45;11.25;;;;;;;-0.38;100.00;101357.95;1671833;86;21108;-67
2022/03/06 04:41:22;;;;;;;20.92;12.13;;;;;;;-0.33;100.00;101364.34;1645263;84;21086;-63
2022/03/06 04:43:50;;;;;;;22.07;11.85;;;;;;;-0.25;100.00;101369.09;1672374;86;21013;-64
2022/03/06 04:46:19;;;;;;;21.17;12.28;;;;;;;-0.24;100.00;101369.13;1671681;86;21041;-64
2022/03/06 04:48:46;;;;;;;22.15;12.30;;;;;;;-0.16;100.00;101374.30;1672043;86;21042;-65
2022/03/06 04:51:13;;;;;;;21.20;12.05;;;;;;;-0.05;100.00;101378.23;1671810;86;21127;-64
2022/03/06 04:53:40;;;;;;;21.42;12.13;;;;;;;0.01;100.00;101382.53;1671945;86;21037;-63
2022/03/06 04:56:07;;;;;;;22.52;12.80;;;;;;;0.06;100.00;101390.63;1671883;85;21097;-66
2022/03/06 04:58:35;;;;;;;19.45;11.57;;;;;;;0.08;100.00;101388.09;1672111;86;21053;-63
2022/03/06 05:01:03;;;;;;;22.35;12.78;;;;;;;0.11;100.00;101387.73;1672142;86;21061;-63
2022/03/06 05:03:30;;;;;;;24.32;13.20;;;;;;;0.15;100.00;101388.20;1671975;86;21072;-63
2022/03/06 05:05:59;;;;;;;25.30;13.20;;;;;;;0.30;100.00;101389.22;1672153;86;21120;-63
2022/03/06 05:08:27;;;;;;;23.73;14.10;;;;;;;0.38;100.00;101396.07;1671629;86;21083;-63
2022/03/06 05:10:56;;;;;;;27.48;13.98;;;;;;;0.53;100.00;101397.11;1672099;85;21057;-64
2022/03/06 05:13:25;;;;;;;54.65;24.65;;;;;;;0.63;100.00;101398.05;1645391;86;21033;-62
2022/03/06 05:15:53;;;;;;;43.85;20.72;;;;;;;0.64;100.00;101395.95;1672337;86;21529;-63
2022/03/06 05:18:20;;;;;;;35.33;16.75;;;;;;;0.74;100.00;101401.13;1671764;86;21513;-64
2022/03/06 05:20:48;;;;;;;37.88;18.30;;;;;;;0.77;100.00;101403.72;1671913;86;21073;-64
2022/03/06 05:23:16;;;;;;;29.75;16.40;;;;;;;0.88;100.00;101402.97;1672136;86;21497;-64
2022/03/06 05:25:45;;;;;;;18.17;10.70;;;;;;;0.92;100.00;101401.74;1672244;86;21513;-63
2022/03/06 05:28:13;;;;;;;17.48;10.63;;;;;;;0.88;100.00;101413.11;1671820;86;21077;-62
2022/03/06 05:30:40;;;;;;;17.80;10.38;;;;;;;0.72;100.00;101410.41;1671801;86;21112;-62
2022/03/06 05:33:07;;;;;;;14.85;9.15;;;;;;;0.89;100.00;101412.27;1671762;86;21092;-63
2022/03/06 05:35:34;;;;;;;15.05;9.58;;;;;;;0.89;100.00;101408.06;1671974;86;21647;-64
2022/03/06 05:38:01;;;;;;;14.63;9.38;;;;;;;1.07;100.00;101409.06;1671806;86;21057;-63
2022/03/06 05:40:28;;;;;;;18.75;10.30;;;;;;;1.25;100.00;101408.39;1671629;86;21541;-64
2022/03/06 05:42:55;;;;;;;14.38;9.53;;;;;;;1.26;100.00;101410.07;1645164;86;21104;-65
2022/03/06 05:45:22;;;;;;;16.90;9.80;;;;;;;1.38;100.00;101414.02;1671894;86;21033;-64
2022/03/06 05:47:49;;;;;;;16.00;9.95;;;;;;;1.43;100.00;101408.97;1672070;86;21040;-65
2022/03/06 05:50:16;;;;;;;14.83;9.23;;;;;;;1.38;100.00;101409.78;1671541;86;21139;-64
2022/03/06 05:52:42;;;;;;;20.27;10.45;;;;;;;1.47;100.00;101413.23;1672337;86;21068;-64
2022/03/06 05:55:10;;;;;;;20.15;10.58;;;;;;;1.57;100.00;101418.38;1672142;86;21080;-66
2022/03/06 05:57:38;;;;;;;16.70;9.60;;;;;;;1.73;100.00;101426.11;1671820;86;21096;-64
2022/03/06 06:00:08;;;;;;;15.00;9.60;;;;;;;1.73;100.00;101426.11;1672065;86;21071;-63
2022/03/06 06:02:39;;;;;;;15.25;9.13;;;;;;;1.60;100.00;101427.69;1671887;86;21580;-64
2022/03/06 06:05:11;;;;;;;15.43;9.28;;;;;;;1.34;100.00;101423.70;1672196;86;21065;-63
2022/03/06 06:07:38;;;;;;;14.87;8.70;;;;;;;1.65;100.00;101429.86;1671140;86;21103;-64
2022/03/06 06:10:09;;;;;;;15.30;9.53;;;;;;;1.50;100.00;101432.27;1671379;86;21096;-63
2022/03/06 06:12:36;;;;;;;16.05;9.60;;;;;;;1.59;100.00;101439.54;1671245;86;21084;-63
2022/03/06 06:15:04;;;;;;;15.00;9.18;;;;;;;1.58;100.00;101432.78;1671330;86;21543;-63
2022/03/06 06:17:31;;;;;;;14.80;9.05;;;;;;;1.78;100.00;101438.00;1671346;86;21092;-63
2022/03/06 06:20:00;;;;;;;15.23;9.50;;;;;;;1.94;100.00;101440.20;1670974;86;21103;-63
2022/03/06 06:22:31;;;;;;;17.60;10.55;;;;;;;1.96;100.00;101442.33;1671199;86;21354;-64
2022/03/06 06:24:56;;;;;;;16.10;9.65;;;;;;;1.96;100.00;101443.60;1670399;86;21028;-65
2022/03/06 06:27:23;;;;;;;17.77;10.23;;;;;;;1.98;100.00;101445.73;1671366;86;21048;-64
2022/03/06 06:29:49;;;;;;;15.10;9.20;;;;;;;1.83;100.00;101451.16;1676297;84;21050;-66
2022/03/06 06:32:16;;;;;;;15.32;8.98;;;;;;;1.71;100.00;101454.44;1697804;84;21076;-64
2022/03/06 06:34:44;;;;;;;15.53;9.20;;;;;;;1.79;100.00;101460.42;1667779;84;21019;-63
2022/03/06 06:37:13;;;;;;;15.50;9.88;;;;;;;1.82;100.00;101454.52;1700691;84;21554;-64
2022/03/06 06:39:42;;;;;;;19.12;9.58;;;;;;;1.67;100.00;101456.09;1693923;84;21332;-65
2022/03/06 06:42:10;;;;;;;15.23;9.48;;;;;;;1.89;100.00;101455.00;1667043;85;21153;-66
2022/03/06 06:44:37;;;;;;;15.20;9.35;;;;;;;2.16;100.00;101455.16;1667574;86;21562;-65
2022/03/06 06:47:05;;;;;;;16.85;10.23;;;;;;;2.25;100.00;101457.31;1655788;86;21073;-66
2022/03/06 06:49:31;;;;;;;15.58;9.40;;;;;;;2.32;100.00;101466.26;1667628;86;21051;-65
2022/03/06 06:51:58;;;;;;;15.50;9.18;;;;;;;2.22;100.00;101466.21;1667403;86;21582;-64
2022/03/06 06:54:25;;;;;;;14.30;9.10;;;;;;;2.36;100.00;101464.16;1667073;86;21214;-65
2022/03/06 06:56:51;;;;;;;16.17;9.70;;;;;;;2.22;100.00;101473.83;1667597;86;21058;-64
2022/03/06 06:59:18;;;;;;;18.27;10.55;;;;;;;2.26;100.00;101470.03;1667615;86;21030;-62
2022/03/06 07:01:45;;;;;;;19.05;10.65;;;;;;;2.51;100.00;101470.16;1667455;86;21054;-62
2022/03/06 07:04:12;;;;;;;18.87;11.15;;;;;;;2.48;100.00;101467.19;1657698;86;21071;-63
2022/03/06 07:06:40;;;;;;;17.80;10.48;;;;;;;2.70;100.00;101466.02;1658783;86;21100;-63
2022/03/06 07:09:08;;;;;;;21.73;11.50;;;;;;;2.85;100.00;101463.52;1657425;86;21051;-65
2022/03/06 07:11:34;;;;;;;19.73;11.00;;;;;;;3.07;100.00;101464.86;1652627;86;21063;-64
2022/03/06 07:14:01;;;;;;;20.48;10.82;;;;;;;3.16;100.00;101464.86;1659177;86;21034;-65
2022/03/06 07:16:28;;;;;;;19.48;10.95;;;;;;;3.16;100.00;101470.82;1649393;86;21559;-64
2022/03/06 07:18:56;;;;;;;19.98;11.30;;;;;;;3.17;100.00;101471.23;1650250;86;21026;-63
2022/03/06 07:21:23;;;;;;;17.75;9.93;;;;;;;3.00;99.93;101475.02;1652478;86;21394;-64
2022/03/06 07:23:50;;;;;;;18.15;10.13;;;;;;;3.09;100.00;101477.16;1670538;85;21123;-63
2022/03/06 07:26:17;;;;;;;12.82;8.30;;;;;;;3.33;100.00;101476.36;1658743;86;21014;-63
2022/03/06 07:28:45;;;;;;;16.45;9.55;;;;;;;3.26;97.18;101475.91;1629413;86;21060;-65
2022/03/06 07:31:12;;;;;;;19.23;11.10;;;;;;;3.44;97.70;101475.09;1653576;86;21579;-66
2022/03/06 07:33:39;;;;;;;18.55;9.85;;;;;;;3.63;100.00;101479.36;1680596;85;21373;-63
2022/03/06 07:36:07;;;;;;;16.00;9.40;;;;;;;3.56;96.90;101481.03;1683389;85;21151;-65
2022/03/06 07:38:34;;;;;;;15.20;9.18;;;;;;;3.79;99.12;101475.08;1627220;86;21091;-66
2022/03/06 07:41:01;;;;;;;13.95;8.25;;;;;;;3.84;93.95;101480.20;1674046;84;21077;-64
2022/03/06 07:43:28;;;;;;;13.72;8.13;;;;;;;3.08;85.48;101479.26;1681437;84;21078;-64
2022/03/06 07:45:55;;;;;;;13.25;8.08;;;;;;;2.89;87.07;101480.48;1664551;84;21085;-64
2022/03/06 07:48:23;;;;;;;11.48;7.53;;;;;;;2.87;89.52;101476.24;1677329;84;21102;-64
2022/03/06 07:50:50;;;;;;;12.65;7.78;;;;;;;3.04;94.28;101480.94;1675540;84;21079;-65
2022/03/06 07:53:17;;;;;;;11.43;7.25;;;;;;;2.86;85.75;101475.80;1641038;86;21120;-63
2022/03/06 07:55:44;;;;;;;15.53;8.20;;;;;;;2.96;87.42;101478.80;1676485;84;21586;-67
2022/03/06 07:58:11;;;;;;;13.50;7.97;;;;;;;2.93;87.92;101478.38;1676016;84;21116;-63
2022/03/06 08:00:40;;;;;;;15.10;8.20;;;;;;;3.14;86.05;101475.05;1676240;84;21066;-65
2022/03/06 08:03:06;;;;;;;15.65;8.50;;;;;;;3.20;84.19;101480.16;1672998;86;21091;-67
2022/03/06 08:05:34;;;;;;;15.98;9.00;;;;;;;3.24;81.13;101483.53;1672725;85;21102;-66
2022/03/06 08:08:01;;;;;;;16.65;9.33;;;;;;;3.35;82.44;101475.50;1672631;85;21134;-64
2022/03/06 08:10:28;;;;;;;17.75;9.68;;;;;;;3.46;81.25;101472.96;1672743;85;21071;-64
2022/03/06 08:12:57;;;;;;;16.10;9.65;;;;;;;3.53;79.23;101474.67;1669382;84;21068;-65
2022/03/06 08:15:24;;;;;;;14.65;7.83;;;;;;;3.54;78.60;101478.06;1672657;86;21078;-63
2022/03/06 08:17:52;;;;;;;13.55;7.70;;;;;;;3.61;76.33;101484.87;1672855;86;21578;-63
2022/03/06 08:20:20;;;;;;;11.90;6.72;;;;;;;3.73;74.98;101487.82;1646092;86;21059;-64
2022/03/06 08:22:47;;;;;;;8.53;4.10;;;;;;;3.66;73.06;101490.80;1673002;86;21594;-65
2022/03/06 08:25:15;;;;;;;7.40;4.45;;;;;;;3.72;72.26;101489.52;1672703;86;21129;-64
2022/03/06 08:27:42;;;;;;;2.92;2.55;;;;;;;3.59;69.97;101484.02;1672611;86;22331;-63
2022/03/06 08:30:09;;;;;;;4.50;2.65;;;;;;;3.21;65.92;101486.93;1672897;85;21625;-63
2022/03/06 08:32:38;;;;;;;3.80;1.92;;;;;;;3.26;64.45;101492.02;1671730;86;21058;-64
2022/03/06 08:35:08;;;;;;;4.03;1.85;;;;;;;3.08;65.38;101491.98;1671515;86;21612;-64
2022/03/06 08:37:36;;;;;;;2.98;1.67;;;;;;;3.24;64.55;101494.98;1644517;86;21608;-64
2022/03/06 08:40:06;;;;;;;2.47;2.00;;;;;;;3.11;62.52;101488.19;1675791;84;21509;-66
2022/03/06 08:42:35;;;;;;;4.72;2.70;;;;;;;3.07;63.51;101489.02;1669759;83;21126;-64
2022/03/06 08:45:03;;;;;;;3.05;2.70;;;;;;;3.49;64.51;101481.89;1655823;86;21131;-65
2022/03/06 08:47:31;;;;;;;3.87;2.90;;;;;;;3.37;63.23;101483.98;1640011;86;21066;-63
2022/03/06 08:49:58;;;;;;;4.87;3.27;;;;;;;3.40;64.43;101481.86;1663117;86;21042;-64
2022/03/06 08:52:24;;;;;;;5.90;3.35;;;;;;;3.37;65.58;101474.24;1663316;86;21046;-65
2022/03/06 08:54:50;;;;;;;6.58;3.98;;;;;;;3.35;64.05;101472.95;1663232;86;20985;-63
2022/03/06 08:57:17;;;;;;;5.70;3.83;;;;;;;3.38;66.43;101474.22;1663588;86;21090;-63
2022/03/06 08:59:44;;;;;;;6.62;4.33;;;;;;;3.53;64.12;101480.20;1662126;86;21075;-65
2022/03/06 09:02:11;;;;;;;5.17;3.27;;;;;;;3.47;64.43;101477.22;1668982;85;22110;-65
2022/03/06 09:04:37;;;;;;;4.62;3.65;;;;;;;3.43;64.89;101475.92;1653592;85;21033;-66
2022/03/06 09:07:05;;;;;;;5.72;4.08;;;;;;;3.53;64.91;101477.66;1671670;85;21617;-64
2022/03/06 09:09:34;;;;;;;4.85;3.17;;;;;;;3.67;65.75;101474.69;1629165;86;21117;-65
2022/03/06 09:12:02;;;;;;;4.83;3.22;;;;;;;3.40;64.26;101476.77;1649299;86;21043;-66
2022/03/06 09:14:29;;;;;;;3.35;2.60;;;;;;;3.45;66.26;101481.86;1667337;86;21055;-62
2022/03/06 09:16:55;;;;;;;3.02;2.42;;;;;;;3.84;67.55;101482.74;1681090;85;21023;-64
2022/03/06 09:19:23;;;;;;;4.12;2.70;;;;;;;4.06;64.44;101479.75;1648754;86;21051;-65
2022/03/06 09:21:50;;;;;;;5.08;3.42;;;;;;;3.97;62.85;101476.38;1665397;86;21103;-64
2022/03/06 09:24:16;;;;;;;6.12;3.75;;;;;;;3.58;64.45;101474.23;1665981;86;21705;-63
2022/03/06 09:26:43;;;;;;;5.78;2.95;;;;;;;3.52;63.30;101484.42;1666036;85;21086;-64
2022/03/06 09:29:10;;;;;;;3.70;2.90;;;;;;;3.44;65.70;101475.93;1666224;86;21011;-64
2022/03/06 09:31:37;;;;;;;4.72;3.05;;;;;;;3.47;62.62;101482.71;1669567;85;21028;-63
2022/03/06 09:34:05;;;;;;;5.10;3.40;;;;;;;3.78;64.64;101478.06;1635465;87;21122;-65
2022/03/06 09:36:32;;;;;;;4.40;3.00;;;;;;;4.18;64.34;101475.91;1673210;86;22410;-63
2022/03/06 09:38:59;;;;;;;4.25;3.00;;;;;;;4.00;61.69;101481.88;1673658;86;21413;-63
2022/03/06 09:41:28;;;;;;;3.80;2.80;;;;;;;4.34;64.42;101477.56;1675048;84;21139;-63
2022/03/06 09:43:57;;;;;;;4.47;2.80;;;;;;;4.44;61.60;101473.70;1676517;86;21036;-62
2022/03/06 09:46:25;;;;;;;4.65;3.12;;;;;;;4.65;61.76;101476.62;1651450;86;21028;-63
2022/03/06 09:48:53;;;;;;;3.75;2.67;;;;;;;4.51;60.09;101474.11;1676643;86;21088;-63
2022/03/06 09:51:20;;;;;;;2.77;2.50;;;;;;;4.52;58.81;101477.94;1676766;86;21031;-62
2022/03/06 09:53:48;;;;;;;3.30;2.80;;;;;;;4.78;59.67;101475.69;1651535;86;21516;-63
2022/03/06 09:56:15;;;;;;;3.50;3.17;;;;;;;4.30;59.60;101477.55;1676594;86;21036;-63
2022/03/06 09:58:42;;;;;;;3.77;3.20;;;;;;;4.64;62.33;101465.98;1676934;86;21055;-63
2022/03/06 10:01:09;;;;;;;3.70;3.30;;;;;;;4.83;59.56;101473.98;1676602;86;21036;-63
2022/03/06 10:03:36;;;;;;;5.25;3.40;;;;;;;4.46;57.99;101483.06;1676877;86;21548;-63
2022/03/06 10:06:07;;;;;;;4.67;3.17;;;;;;;4.16;59.08;101478.89;1676642;86;21040;-63
2022/03/06 10:08:35;;;;;;;3.37;2.67;;;;;;;3.98;58.47;101488.67;1676809;86;21023;-63
2022/03/06 10:11:08;;;;;;;4.33;3.30;;;;;;;4.11;57.57;101480.58;1676980;86;21056;-62
2022/03/06 10:13:45;;;;;;;4.15;3.20;;;;;;;4.48;58.07;101467.33;1676966;86;20992;-63
2022/03/06 10:16:20;;;;;;;4.37;3.50;;;;;;;4.80;58.57;101472.70;1651517;86;21071;-63
2022/03/06 10:18:54;;;;;;;5.33;4.03;;;;;;;4.72;60.23;101468.91;1676971;86;21032;-63
2022/03/06 10:21:32;;;;;;;4.90;3.60;;;;;;;4.58;61.70;101474.49;1676698;86;21038;-63
2022/03/06 10:24:08;;;;;;;5.78;4.05;;;;;;;4.81;62.67;101465.48;1676880;86;21028;-63
2022/03/06 10:26:37;;;;;;;6.40;4.30;;;;;;;4.95;58.83;101466.27;1676757;86;21508;-63
2022/03/06 10:29:11;;;;;;;7.75;4.62;;;;;;;4.89;62.07;101461.63;1652060;86;21059;-63
2022/03/06 10:31:55;;;;;;;8.15;4.85;;;;;;;4.87;58.30;101461.63;1676906;86;21047;-62
2022/03/06 10:34:38;;;;;;;7.92;5.28;;;;;;;4.72;56.56;101462.97;1676799;86;21071;-64
2022/03/06 10:37:06;;;;;;;6.47;4.87;;;;;;;4.01;56.08;101468.27;1676686;86;21051;-63
2022/03/06 10:39:48;;;;;;;7.47;4.87;;;;;;;4.20;56.54;101467.83;1677100;86;21003;-63
2022/03/06 10:42:22;;;;;;;5.50;4.67;;;;;;;4.25;56.08;101467.37;1670141;85;21528;-63
2022/03/06 10:44:49;;;;;;;5.95;4.03;;;;;;;4.67;55.90;101469.80;1719917;83;21055;-63
2022/03/06 10:47:16;;;;;;;6.72;4.35;;;;;;;4.92;57.07;101462.44;1719659;83;21035;-63
2022/03/06 10:50:05;;;;;;;6.92;4.55;;;;;;;5.03;58.48;101452.19;1719836;83;21055;-63
2022/03/06 10:52:45;;;;;;;6.10;4.12;;;;;;;5.01;59.81;101457.73;1719712;83;21019;-62
2022/03/06 10:55:10;;;;;;;5.72;4.22;;;;;;;5.07;56.92;101453.87;1719137;83;21050;-66
2022/03/06 10:57:36;;;;;;;6.85;4.62;;;;;;;4.89;55.84;101457.80;1693168;83;21039;-63
2022/03/06 11:00:07;;;;;;;6.95;4.30;;;;;;;5.00;56.36;101452.19;1719836;83;21072;-63
2022/03/06 11:02:36;;;;;;;8.50;4.60;;;;;;;5.05;57.21;101446.65;1719789;83;21047;-63
2022/03/06 11:05:03;;;;;;;6.87;5.20;;;;;;;5.12;55.80;101441.91;1719957;83;21515;-62
2022/03/06 11:07:31;;;;;;;8.58;5.25;;;;;;;4.87;56.10;101451.86;1719861;83;21051;-63
2022/03/06 11:09:58;;;;;;;6.62;4.58;;;;;;;4.92;57.18;101450.12;1719601;83;21038;-65
2022/03/06 11:12:26;;;;;;;6.28;4.75;;;;;;;4.72;55.80;101451.48;1719750;83;21523;-63
2022/03/06 11:14:53;;;;;;;6.33;4.58;;;;;;;4.86;56.22;101461.20;1719739;83;21047;-63
2022/03/06 11:17:20;;;;;;;5.62;4.20;;;;;;;4.84;55.74;101453.97;1719748;83;20983;-63
2022/03/06 11:19:49;;;;;;;5.15;4.03;;;;;;;5.00;55.90;101452.19;1719494;83;21627;-63
2022/03/06 11:22:52;;;;;;;7.00;4.60;;;;;;;5.23;56.00;101458.42;1719823;83;21054;-63
2022/03/06 11:25:24;;;;;;;7.30;5.15;;;;;;;4.71;57.33;101461.28;1719607;83;21043;-62